EGKB/BQH METAR and TAF weather

Enter ICAO airport designator
Station Type Date Time Source
EGKB METAR 2020/07/11 20:20 UTC NOAA

EGKB 112020Z VRB03KT CAVOK 14/07 Q1028


Station Type Date Time Source
EGKB Decoded METAR 2020/07/11 20:20 UTC NOAA

Biggin Hill , United Kingdom (EGKB) 51-19N 000-02E
Jul 11, 2020 - 04:20 PM EDT / 2020.07.11 2020 UTC
Wind: Variable at 3 MPH (3 KT):0
Visibility: greater than 7 mile(s):0
Temperature: 57 F (14 C)
Dew Point: 44 F (7 C)
Relative Humidity: 62%
Pressure (altimeter): 30.36 in. Hg (1028 hPa)
ob: EGKB 112020Z VRB03KT CAVOK 14/07 Q1028
cycle: 20

Station Type Date Time Source
EGKB TAF 2019/07/13 18:09 UTC NOAA

TAF EGKB 131706Z 1318/1422 03009KT 9999 SCT040 PROB30
TEMPO 1318/1320 8000 -SHRA

Example: see airport list